Time;durP1;ratioP1;P1;durP2;ratioP2;P2;SDS_P1;SDS_P2;PMS_P1;PMS_P2;Temp;Humidity;BMP_temperature;BMP_pressure;BME280_temperature;BME280_humidity;BME280_pressure;Samples;Min_cycle;Max_cycle;Signal;HPM_P1;HPM_P2
2023/04/23 00:00:56;;;;;;;;;;;;;;;;;;2258284;78;50372;-76
2023/04/23 00:03:57;;;;;;;;;;;;;;;20.18;59.31;100081.72;2277905;77;21933;-76
2023/04/23 00:06:58;;;;;;;;;;;;;;;20.18;59.30;100085.75;2277770;78;50714;-77
2023/04/23 00:10:00;;;;;;;;;;;;;;;20.16;59.30;100077.07;2264224;78;52498;-75
2023/04/23 00:13:01;;;;;;;;;;;;;;;;;;2258955;78;50322;-76
2023/04/23 00:16:03;;;;;;;;;;;;;;;20.16;59.30;100071.70;2258809;78;50767;-76
2023/04/23 00:19:05;;;;;;;;;;;;;;;20.16;59.29;100071.70;2218285;80;51611;-76
2023/04/23 00:22:07;;;;;;;;;;;;;;;20.15;59.29;100072.75;2216355;79;52336;-76
2023/04/23 00:25:09;;;;;;;;;;;;;;;20.14;59.32;100067.56;2216165;79;51656;-77
2023/04/23 00:28:10;;;;;;;;;;;;;;;20.15;59.30;100070.58;2215862;79;50156;-76
2023/04/23 00:31:12;;;;;;;;;;;;;;;20.15;59.31;100069.23;2238385;79;50121;-76
2023/04/23 00:34:13;;;;;;;;;;;;;;;20.14;59.30;100064.39;2238359;79;50429;-75
2023/04/23 00:37:15;;;;;;;;;;;;;;;20.14;59.32;100057.67;2215758;79;51672;-76
2023/04/23 00:40:17;;;;;;;;;;;;;;;20.13;59.30;100058.69;2215965;79;51453;-76
2023/04/23 00:43:19;;;;;;;;;;;;;;;20.14;59.29;100049.62;2238457;79;51472;-75
2023/04/23 00:46:21;;;;;;;;;;;;;;;20.12;59.33;100053.02;2215819;79;50670;-77
2023/04/23 00:49:22;;;;;;;;;;;;;;;20.12;59.29;100051.67;2216429;79;51627;-77
2023/04/23 00:52:24;;;;;;;;;;;;;;;20.12;59.32;100050.33;2202928;79;51468;-77
2023/04/23 00:55:26;;;;;;;;;;;;;;;20.11;59.33;100044.63;2238243;79;51469;-77
2023/04/23 00:58:28;;;;;;;;;;;;;;;20.13;59.30;100049.81;2238382;79;50360;-77
2023/04/23 01:01:32;;;;;;;;;;;;;;;20.12;59.28;100046.30;2200240;80;51025;-76
2023/04/23 01:04:33;;;;;;;;;;;;;;;20.12;59.27;100045.48;2220562;80;24796;-77
2023/04/23 01:07:34;;;;;;;;;;;;;;;20.10;59.29;100043.00;2220309;80;50649;-77
2023/04/23 01:10:36;;;;;;;;;;;;;;;20.11;59.27;100044.63;2220274;80;51504;-75
2023/04/23 01:13:38;;;;;;;;;;;;;;;20.11;59.24;100043.29;2199960;80;52533;-77
2023/04/23 01:16:39;;;;;;;;;;;;;;;20.10;59.27;100034.94;2220089;80;51413;-76
2023/04/23 01:19:41;;;;;;;;;;;;;;;20.10;59.28;100034.94;2201992;78;51495;-76
2023/04/23 01:22:43;;;;;;;;;;;;;;;20.09;59.29;100040.02;2277787;77;51442;-77
2023/04/23 01:25:44;;;;;;;;;;;;;;;20.10;59.28;100038.97;2233778;77;52239;-76
2023/04/23 01:28:46;;;;;;;;;;;;;;;20.09;59.29;100037.33;2258991;78;51455;-77
2023/04/23 01:31:47;;;;;;;;;;;;;;;20.09;59.31;100037.82;2259114;78;50261;-75
2023/04/23 01:34:49;;;;;;;;;;;;;;;20.09;59.31;100037.82;2277818;78;50272;-77
2023/04/23 01:37:51;;;;;;;;;;;;;;;20.10;59.29;100044.86;2217563;79;52291;-76
2023/04/23 01:40:53;;;;;;;;;;;;;;;20.09;59.28;100037.33;2266957;78;50636;-76
2023/04/23 01:43:55;;;;;;;;;;;;;;;20.09;59.27;100045.38;2266741;78;50373;-75
2023/04/23 01:46:57;;;;;;;;;;;;;;;20.09;59.27;100038.67;2267018;78;51511;-77
2023/04/23 01:49:58;;;;;;;;;;;;;;;20.08;59.27;100038.34;2225693;78;51713;-77
2023/04/23 01:53:00;;;;;;;;;;;;;;;20.08;59.27;100039.69;2264074;78;50612;-77
2023/04/23 01:56:01;;;;;;;;;;;;;;;20.07;59.28;100032.67;2288873;77;51501;-77
2023/04/23 01:59:03;;;;;;;;;;;;;;;20.07;59.28;100029.17;2253099;78;51536;-77
2023/04/23 02:02:09;;;;;;;;;;;;;;;20.08;59.29;100029.47;2232376;79;53240;-77
2023/04/23 02:05:12;;;;;;;;;;;;;;;20.07;59.28;100024.62;2256233;78;22391;-75
2023/04/23 02:08:13;;;;;;;;;;;;;;;20.07;59.28;100029.98;2289023;77;50287;-76
2023/04/23 02:11:15;;;;;;;;;;;;;;;20.07;59.28;100027.83;2288741;77;50001;-76
2023/04/23 02:14:17;;;;;;;;;;;;;;;20.06;59.29;100006.83;2215451;78;51239;-76
2023/04/23 02:17:19;;;;;;;;;;;;;;;20.06;59.31;100016.75;2260421;78;50394;-76
2023/04/23 02:20:21;;;;;;;;;;;;;;;20.05;59.29;100017.80;2251041;78;50710;-77
2023/04/23 02:23:22;;;;;;;;;;;;;;;20.06;59.29;100018.09;2289044;77;51651;-75
2023/04/23 02:26:24;;;;;;;;;;;;;;;20.06;59.29;100016.23;2254548;77;52405;-75
2023/04/23 02:29:25;;;;;;;;;;;;;;;20.05;59.27;100014.59;2219704;79;51508;-75
2023/04/23 02:32:27;;;;;;;;;;;;;;;20.04;59.27;100012.95;2239880;78;51504;-76
2023/04/23 02:35:30;;;;;;;;;;;;;;;20.04;59.28;100023.70;2264398;78;51388;-76
2023/04/23 02:38:31;;;;;;;;;;;;;;;20.04;59.31;100025.04;2281071;77;50948;-76
2023/04/23 02:41:33;;;;;;;;;;;;;;;20.04;59.32;100015.64;2251580;79;50377;-77
2023/04/23 02:44:34;;;;;;;;;;;;;;;20.04;59.28;100022.84;2260651;78;50660;-75
2023/04/23 02:47:36;;;;;;;;;;;;;;;20.04;59.27;100012.95;2255034;78;50588;-77
2023/04/23 02:50:38;;;;;;;;;;;;;;;20.04;59.28;100015.64;2240005;78;51548;-77
2023/04/23 02:53:39;;;;;;;;;;;;;;;20.03;59.26;100015.31;2230426;80;51449;-76
2023/04/23 02:56:41;;;;;;;;;;;;;;;20.04;59.28;100019.66;2209539;80;52184;-77
2023/04/23 02:59:43;;;;;;;;;;;;;;;20.02;59.28;100001.59;2230149;80;51554;-76
2023/04/23 03:02:45;;;;;;;;;;;;;;;20.03;59.28;100004.56;2209624;80;51658;-77
2023/04/23 03:05:46;;;;;;;;;;;;;;;20.03;59.26;99996.52;2230123;80;50337;-75
2023/04/23 03:08:48;;;;;;;;;;;;;;;20.03;59.29;100000.54;2230346;80;51486;-77
2023/04/23 03:11:49;;;;;;;;;;;;;;;20.01;59.28;99996.73;2209606;80;50230;-77
2023/04/23 03:14:51;;;;;;;;;;;;;;;20.03;59.28;100003.22;2173595;80;52423;-76
2023/04/23 03:17:53;;;;;;;;;;;;;;;20.03;59.26;100006.44;2218814;78;51549;-76
2023/04/23 03:20:55;;;;;;;;;;;;;;;20.01;59.25;100009.31;2252458;78;50713;-76
2023/04/23 03:23:56;;;;;;;;;;;;;;;20.01;59.28;100016.87;2264691;78;50339;-77
2023/04/23 03:26:58;;;;;;;;;;;;;;;20.01;59.27;100012.85;2240173;78;49617;-76
2023/04/23 03:30:00;;;;;;;;;;;;;;;20.00;59.26;100008.49;2264762;78;51502;-76
2023/04/23 03:33:02;;;;;;;;;;;;;;;20.00;59.26;100001.78;2264977;78;50197;-77
2023/04/23 03:36:04;;;;;;;;;;;;;;;20.01;59.26;100002.60;2289229;77;51398;-77
2023/04/23 03:39:06;;;;;;;;;;;;;;;19.99;59.27;99993.43;2228378;79;51220;-76
2023/04/23 03:42:08;;;;;;;;;;;;;;;20.00;59.27;99992.91;2257133;78;51443;-76
2023/04/23 03:45:10;;;;;;;;;;;;;;;19.98;59.29;99994.97;2289233;77;50582;-76
2023/04/23 03:48:11;;;;;;;;;;;;;;;19.98;59.27;99989.08;2270253;77;50251;-77
2023/04/23 03:51:13;;;;;;;;;;;;;;;19.98;59.29;99989.59;2197813;80;49555;-75
2023/04/23 03:54:14;;;;;;;;;;;;;;;19.99;59.29;99989.92;2242222;78;49797;-77
2023/04/23 03:57:16;;;;;;;;;;;;;;;19.98;59.26;99989.59;2264526;77;50619;-76
2023/04/23 04:00:18;;;;;;;;;;;;;;;19.98;59.26;99979.67;2263266;77;50747;-77
2023/04/23 04:03:20;;;;;;;;;;;;;;;19.97;59.30;99979.38;2242167;78;50492;-77
2023/04/23 04:06:22;;;;;;;;;;;;;;;19.98;59.27;99978.33;2243272;78;51866;-77
2023/04/23 04:09:23;;;;;;;;;;;;;;;19.97;59.29;99976.69;2241313;78;50326;-78
2023/04/23 04:12:25;;;;;;;;;;;;;;;19.99;59.25;99976.50;2241387;78;50653;-76
2023/04/23 04:15:26;;;;;;;;;;;;;;;19.96;59.26;99967.49;2203587;78;51175;-74
2023/04/23 04:18:28;;;;;;;;;;;;;;;19.97;59.46;99975.35;2243489;78;51543;-74
2023/04/23 04:21:30;;;;;;;;;;;;;;;19.95;59.88;99972.05;2218819;80;50237;-75
2023/04/23 04:24:32;;;;;;;;;;;;;;;19.96;60.06;99978.23;2204429;81;50829;-74
2023/04/23 04:27:34;;;;;;;;;;;;;;;19.99;60.06;99981.88;2188557;80;52368;-77
2023/04/23 04:30:35;;;;;;;;;;;;;;;19.99;60.10;99985.37;2214229;80;51428;-75
2023/04/23 04:33:38;;;;;;;;;;;;;;;19.98;60.12;99987.73;2231939;79;50701;-76
2023/04/23 04:36:41;;;;;;;;;;;;;;;20.01;60.36;99994.55;2230125;79;50684;-75
2023/04/23 04:39:42;;;;;;;;;;;;;;;20.02;60.34;99997.56;2213340;78;52617;-73
2023/04/23 04:42:45;;;;;;;;;;;;;;;20.00;61.38;99998.28;2246264;78;51463;-74
2023/04/23 04:45:46;;;;;;;;;;;;;;;20.04;61.35;99987.94;2246312;78;50282;-71
2023/04/23 04:48:48;;;;;;;;;;;;;;;20.04;61.33;99992.81;2227504;79;50645;-73
2023/04/23 04:51:50;;;;;;;;;;;;;;;20.05;61.15;99995.80;2238755;78;50158;-72
2023/04/23 04:54:51;;;;;;;;;;;;;;;20.07;60.75;99999.10;2266885;78;50355;-72
2023/04/23 04:57:53;;;;;;;;;;;;;;;20.06;60.64;99995.27;2247230;78;50613;-72
2023/04/23 05:00:55;;;;;;;;;;;;;;;20.07;60.50;99998.28;2267373;78;50641;-73
2023/04/23 05:03:56;;;;;;;;;;;;;;;20.07;60.44;100000.97;2245201;78;51262;-74
2023/04/23 05:06:58;;;;;;;;;;;;;;;20.07;60.47;100007.69;2245736;78;50479;-73
2023/04/23 05:09:59;;;;;;;;;;;;;;;20.06;60.36;100005.48;2266979;78;51534;-73
2023/04/23 05:13:01;;;;;;;;;;;;;;;20.08;60.65;100004.77;2267278;78;51512;-74
2023/04/23 05:16:02;;;;;;;;;;;;;;;20.08;60.77;100003.42;2245832;78;52327;-73
2023/04/23 05:19:05;;;;;;;;;;;;;;;20.08;60.76;100016.03;2226012;78;51387;-73
2023/04/23 05:22:06;;;;;;;;;;;;;;;20.11;60.35;100006.21;2254610;78;50685;-74
2023/04/23 05:25:08;;;;;;;;;;;;;;;20.14;60.21;100006.64;2230191;80;51387;-75
2023/04/23 05:28:10;;;;;;;;;;;;;;;20.14;59.46;100006.64;2209521;80;50983;-74
2023/04/23 05:31:12;;;;;;;;;;;;;;;20.14;58.02;100012.02;2209667;80;50557;-72
2023/04/23 05:34:13;;;;;;;;;;;;;;;20.10;57.71;100005.92;2230412;80;50228;-71
2023/04/23 05:37:15;;;;;;;;;;;;;;;20.01;58.68;99998.57;2209786;80;50619;-73
2023/04/23 05:40:16;;;;;;;;;;;;;;;20.03;59.13;100010.46;2209940;80;51415;-73
2023/04/23 05:43:18;;;;;;;;;;;;;;;20.08;59.15;100016.86;2210042;80;50682;-72
2023/04/23 05:46:19;;;;;;;;;;;;;;;20.11;59.21;100023.67;2209711;80;50920;-71
2023/04/23 05:49:22;;;;;;;;;;;;;;;20.11;59.19;100016.44;2240779;78;51513;-73
2023/04/23 05:52:24;;;;;;;;;;;;;;;20.14;59.35;100012.02;2209473;80;51193;-73
2023/04/23 05:55:25;;;;;;;;;;;;;;;20.16;59.43;100017.98;2230151;80;49975;-72
2023/04/23 05:58:27;;;;;;;;;;;;;;;20.19;59.38;100013.55;2230202;80;51548;-69
2023/04/23 06:01:28;;;;;;;;;;;;;;;20.18;59.27;100017.25;2209745;80;51474;-71
2023/04/23 06:04:29;;;;;;;;;;;;;;;;;;2185980;80;50904;-73
2023/04/23 06:07:31;;;;;;;;;;;;;;;20.16;59.39;100019.84;2239520;78;49731;-72
2023/04/23 06:10:32;;;;;;;;;;;;;;;20.16;59.39;100019.84;2267114;78;51649;-72
2023/04/23 06:13:39;;;;;;;;;;;;;;;20.14;59.62;100017.88;2246156;78;50729;-71
2023/04/23 06:16:37;;;;;;;;;;;;;;;20.14;59.52;100018.73;2266892;78;22405;-70
2023/04/23 06:19:39;;;;;;;;;;;;;;;20.15;59.46;100021.71;2209134;78;51778;-72
2023/04/23 06:22:40;;;;;;;;;;;;;;;20.15;59.69;100027.08;2246604;78;51433;-70
2023/04/23 06:25:42;;;;;;;;;;;;;;;20.15;59.80;100017.68;2246327;78;51375;-74
2023/04/23 06:28:44;;;;;;;;;;;;;;;20.14;59.83;100019.22;2246355;78;51414;-73
2023/04/23 06:31:46;;;;;;;;;;;;;;;20.14;59.86;100030.81;2230110;79;50933;-74
2023/04/23 06:34:47;;;;;;;;;;;;;;;20.16;59.84;100022.00;2229950;80;50264;-72
2023/04/23 06:37:49;;;;;;;;;;;;;;;20.16;59.76;100022.53;2209422;80;49873;-72
2023/04/23 06:40:51;;;;;;;;;;;;;;;20.16;59.74;100027.37;2209312;80;50244;-74
2023/04/23 06:43:53;;;;;;;;;;;;;;;20.15;59.71;100019.55;2215922;78;50887;-74
2023/04/23 06:46:55;;;;;;;;;;;;;;;20.15;60.00;100028.42;2267319;78;50350;-72
2023/04/23 06:49:59;;;;;;;;;;;;;;;20.14;60.13;100030.81;2231777;79;50757;-72
2023/04/23 06:53:00;;;;;;;;;;;;;;;20.15;59.94;100020.89;2275554;78;51524;-72
2023/04/23 06:56:02;;;;;;;;;;;;;;;20.15;59.83;100031.63;2229436;78;51563;-72
2023/04/23 06:59:04;;;;;;;;;;;;;;;20.15;60.71;100027.60;2260525;78;51419;-74
2023/04/23 07:02:05;;;;;;;;;;;;;;;20.16;60.52;100031.41;2212429;79;50633;-72
2023/04/23 07:05:07;;;;;;;;;;;;;;;20.19;60.66;100040.41;2232958;78;50398;-72
2023/04/23 07:08:08;;;;;;;;;;;;;;;20.19;60.82;100037.73;2249268;78;50100;-73
2023/04/23 07:11:10;;;;;;;;;;;;;;;20.18;60.89;100042.77;2214436;78;50124;-74
2023/04/23 07:14:12;;;;;;;;;;;;;;;20.16;60.77;100040.80;2244520;79;50283;-73
2023/04/23 07:17:13;;;;;;;;;;;;;;;20.16;60.77;100035.44;2214685;78;50031;-74
2023/04/23 07:20:15;;;;;;;;;;;;;;;20.16;60.70;100044.84;2246900;78;50118;-72
2023/04/23 07:23:16;;;;;;;;;;;;;;;;;;2279163;77;50766;-72
2023/04/23 07:26:17;;;;;;;;;;;;;;;20.16;60.63;100043.49;2275245;78;51482;-74
2023/04/23 07:29:19;;;;;;;;;;;;;;;20.18;59.43;100045.98;2289221;76;51477;-72
2023/04/23 07:32:24;;;;;;;;;;;;;;;20.13;59.68;100053.31;2229863;78;52315;-71
2023/04/23 07:35:23;;;;;;;;;;;;;;;;;;2238136;78;22356;-71
2023/04/23 07:38:24;;;;;;;;;;;;;;;20.14;59.84;100050.11;2259100;78;51551;-73
2023/04/23 07:41:26;;;;;;;;;;;;;;;20.14;59.79;100051.45;2259077;78;50720;-72
2023/04/23 07:44:28;;;;;;;;;;;;;;;20.12;59.71;100055.70;2238074;78;51539;-72
2023/04/23 07:47:29;;;;;;;;;;;;;;;20.14;59.30;100056.33;2258383;78;51494;-73
2023/04/23 07:50:31;;;;;;;;;;;;;;;20.14;59.29;100060.36;2210863;78;51562;-72
2023/04/23 07:53:33;;;;;;;;;;;;;;;20.13;59.27;100061.37;2277821;78;51502;-72
2023/04/23 07:56:35;;;;;;;;;;;;;;;20.12;59.24;100058.39;2237952;78;51595;-76
2023/04/23 07:59:40;;;;;;;;;;;;;;;20.12;59.13;100061.08;2198040;79;51273;-74
2023/04/23 08:02:40;;;;;;;;;;;;;;;20.13;58.93;100061.37;2258378;78;22175;-72
2023/04/23 08:05:41;;;;;;;;;;;;;;;20.12;59.08;100057.57;2237733;78;51553;-73
2023/04/23 08:08:43;;;;;;;;;;;;;;;20.11;59.08;100067.98;2238127;78;51430;-73
2023/04/23 08:11:44;;;;;;;;;;;;;;;20.10;59.04;100069.03;2214414;78;52413;-72
2023/04/23 08:14:46;;;;;;;;;;;;;;;20.08;59.02;100064.37;2219681;78;51284;-72
2023/04/23 08:17:47;;;;;;;;;;;;;;;20.07;58.96;100058.19;2218769;79;51506;-72
2023/04/23 08:20:49;;;;;;;;;;;;;;;20.06;58.85;100067.26;2252274;78;51435;-72
2023/04/23 08:23:51;;;;;;;;;;;;;;;20.05;58.83;100052.71;2216208;79;52393;-71
2023/04/23 08:26:52;;;;;;;;;;;;;;;20.06;58.77;100057.86;2225959;79;51399;-72
2023/04/23 08:29:54;;;;;;;;;;;;;;;20.06;58.71;100056.52;2192634;80;50100;-71
2023/04/23 08:32:56;;;;;;;;;;;;;;;20.04;58.69;100059.09;2245400;78;51497;-72
2023/04/23 08:35:58;;;;;;;;;;;;;;;20.01;58.64;100057.66;2223298;78;51423;-71
2023/04/23 08:38:59;;;;;;;;;;;;;;;20.00;58.61;100057.36;2222129;80;50553;-71
2023/04/23 08:42:03;;;;;;;;;;;;;;;20.00;58.56;100063.55;2215902;78;51513;-71
2023/04/23 08:45:04;;;;;;;;;;;;;;;19.99;58.55;100063.25;2236292;78;52472;-71
2023/04/23 08:48:06;;;;;;;;;;;;;;;20.00;58.44;100056.83;2202845;78;52582;-71
2023/04/23 08:51:12;;;;;;;;;;;;;;;19.99;58.45;100060.56;2213639;79;50674;-71
2023/04/23 08:54:15;;;;;;;;;;;;;;;20.00;58.43;100064.07;2244418;78;50324;-72
2023/04/23 08:57:17;;;;;;;;;;;;;;;19.95;58.60;100055.80;2222321;80;50678;-71
2023/04/23 09:00:19;;;;;;;;;;;;;;;19.96;58.61;100061.47;2181376;80;51249;-72
2023/04/23 09:03:21;;;;;;;;;;;;;;;19.95;58.58;100068.70;2233128;78;50767;-72
2023/04/23 09:06:22;;;;;;;;;;;;;;;19.97;58.43;100067.17;2238944;79;50068;-71
2023/04/23 09:09:25;;;;;;;;;;;;;;;19.94;58.63;100076.47;2226594;79;50678;-71
2023/04/23 09:12:27;;;;;;;;;;;;;;;19.96;58.67;100077.59;2229455;78;52599;-73
2023/04/23 09:15:28;;;;;;;;;;;;;;;19.94;58.50;100064.91;2257919;77;50211;-72
2023/04/23 09:18:30;;;;;;;;;;;;;;;19.92;58.50;100066.44;2239414;77;50004;-72
2023/04/23 09:21:32;;;;;;;;;;;;;;;19.92;58.67;100064.28;2277526;77;50110;-73
2023/04/23 09:24:33;;;;;;;;;;;;;;;19.91;58.54;100078.72;2225959;78;50925;-72
2023/04/23 09:27:35;;;;;;;;;;;;;;;19.89;58.44;100068.73;2210780;79;49941;-71
2023/04/23 09:30:43;;;;;;;;;;;;;;;19.89;58.44;100080.81;2261071;78;51498;-71
2023/04/23 09:33:47;;;;;;;;;;;;;;;19.88;58.43;100079.13;2260982;78;51579;-72
2023/04/23 09:36:53;;;;;;;;;;;;;;;19.88;58.57;100083.16;2239412;77;52252;-71
2023/04/23 09:39:55;;;;;;;;;;;;;;;19.88;58.59;100091.22;2239028;78;22491;-71
2023/04/23 09:42:55;;;;;;;;;;;;;;;19.87;58.72;100093.61;2230247;78;22416;-72
2023/04/23 09:45:57;;;;;;;;;;;;;;;19.88;58.85;100096.59;2238916;77;50303;-71
2023/04/23 09:49:00;;;;;;;;;;;;;;;19.88;58.58;100095.25;2219283;78;51904;-72
2023/04/23 09:52:03;;;;;;;;;;;;;;;19.87;58.65;100099.80;2262339;77;52163;-73
2023/04/23 09:55:05;;;;;;;;;;;;;;;19.87;58.67;100105.16;2226329;78;51551;-72
2023/04/23 09:58:08;;;;;;;;;;;;;;;19.87;58.84;100103.00;2258124;78;51590;-73
2023/04/23 10:01:10;;;;;;;;;;;;;;;19.86;58.72;100102.67;2196644;79;51351;-73
2023/04/23 10:04:18;;;;;;;;;;;;;;;19.85;58.48;100105.88;2238866;78;50684;-73
2023/04/23 10:07:20;;;;;;;;;;;;;;;19.85;58.59;100112.59;2223937;79;50263;-72
2023/04/23 10:10:22;;;;;;;;;;;;;;;19.84;58.56;100117.66;2230737;79;50359;-73
2023/04/23 10:13:23;;;;;;;;;;;;;;;19.84;58.36;100112.81;2196139;79;51668;-73
2023/04/23 10:16:25;;;;;;;;;;;;;;;19.83;58.41;100119.19;2243969;78;51576;-72
2023/04/23 10:19:27;;;;;;;;;;;;;;;19.82;58.25;100125.61;2241546;78;51444;-73
2023/04/23 10:22:29;;;;;;;;;;;;;;;19.82;58.29;100133.14;2277164;78;51530;-72
2023/04/23 10:25:31;;;;;;;;;;;;;;;19.81;58.22;100132.84;2215161;79;52510;-72
2023/04/23 10:28:33;;;;;;;;;;;;;;;19.80;58.36;100142.73;2276843;78;51436;-73
2023/04/23 10:31:35;;;;;;;;;;;;;;;19.79;58.24;100141.08;2258165;78;52213;-72
2023/04/23 10:34:36;;;;;;;;;;;;;;;19.78;58.11;100139.44;2263692;78;51638;-72
2023/04/23 10:37:38;;;;;;;;;;;;;;;19.79;58.12;100142.95;2233001;78;52381;-72
2023/04/23 10:40:39;;;;;;;;;;;;;;;19.81;58.07;100130.16;2224373;79;51533;-74
2023/04/23 10:43:41;;;;;;;;;;;;;;;19.82;58.11;100128.30;2242360;78;49922;-71
2023/04/23 10:46:53;;;;;;;;;;;;;;;19.80;58.03;100123.11;2211002;78;51272;-73
2023/04/23 10:49:54;;;;;;;;;;;;;;;19.82;58.06;100128.30;2211355;79;51277;-73
2023/04/23 10:52:56;;;;;;;;;;;;;;;19.81;57.88;100119.42;2226049;79;50383;-73
2023/04/23 10:56:02;;;;;;;;;;;;;;;19.81;57.99;100123.45;2252368;77;51540;-72
2023/04/23 10:59:05;;;;;;;;;;;;;;;19.82;57.89;100118.37;2233654;78;51479;-72
2023/04/23 11:02:07;;;;;;;;;;;;;;;19.82;57.84;100124.27;2201213;80;51351;-74
2023/04/23 11:05:09;;;;;;;;;;;;;;;19.83;57.97;100131.27;2201814;80;51480;-74
2023/04/23 11:08:11;;;;;;;;;;;;;;;19.80;57.94;100137.36;2231135;78;51521;-73
2023/04/23 11:11:12;;;;;;;;;;;;;;;19.80;57.96;100134.67;2232168;78;50617;-73
2023/04/23 11:14:14;;;;;;;;;;;;;;;19.82;57.87;100132.32;2212580;79;51451;-73
2023/04/23 11:17:16;;;;;;;;;;;;;;;19.81;57.77;100136.87;2223557;78;50744;-73
2023/04/23 11:20:19;;;;;;;;;;;;;;;19.80;57.70;100131.98;2248167;78;51532;-72
2023/04/23 11:23:31;;;;;;;;;;;;;;;19.81;57.61;100135.52;2255883;78;50800;-73
2023/04/23 11:26:32;;;;;;;;;;;;;;;19.80;57.67;100127.96;2250815;78;22257;-73
2023/04/23 11:29:34;;;;;;;;;;;;;;;19.80;57.65;100123.94;2267717;78;50232;-72
2023/04/23 11:32:36;;;;;;;;;;;;;;;19.79;57.66;100129.00;2256356;77;50266;-73
2023/04/23 11:35:39;;;;;;;;;;;;;;;19.80;57.61;100131.16;2266636;78;50635;-74
2023/04/23 11:38:41;;;;;;;;;;;;;;;19.79;57.68;100132.21;2267028;78;25768;-74
2023/04/23 11:41:42;;;;;;;;;;;;;;;19.79;57.55;100139.74;2245887;78;51476;-75
2023/04/23 11:44:44;;;;;;;;;;;;;;;19.82;57.58;100138.51;2266681;78;51517;-74
2023/04/23 11:47:47;;;;;;;;;;;;;;;19.79;57.84;100141.08;2259274;78;50779;-73
2023/04/23 11:50:49;;;;;;;;;;;;;;;19.79;57.87;100135.72;2201228;80;52394;-73
2023/04/23 11:53:50;;;;;;;;;;;;;;;19.83;57.75;100131.27;2229856;80;50767;-75
2023/04/23 11:56:52;;;;;;;;;;;;;;;19.84;58.05;100122.20;2229995;80;51505;-73
2023/04/23 11:59:54;;;;;;;;;;;;;;;19.83;58.03;100123.22;2209710;79;51556;-72
2023/04/23 12:02:57;;;;;;;;;;;;;;;19.87;57.75;100136.56;2185944;80;51570;-73
2023/04/23 12:05:59;;;;;;;;;;;;;;;19.87;57.95;100133.36;2229194;80;50781;-73
2023/04/23 12:09:00;;;;;;;;;;;;;;;19.89;57.94;100126.45;2229924;80;50262;-73
2023/04/23 12:12:02;;;;;;;;;;;;;;;19.89;57.97;100126.45;2209555;80;50651;-73
2023/04/23 12:15:05;;;;;;;;;;;;;;;19.90;57.99;100125.41;2186033;80;50215;-73
2023/04/23 12:18:10;;;;;;;;;;;;;;;19.90;58.09;100134.28;2209891;80;51591;-74
2023/04/23 12:21:12;;;;;;;;;;;;;;;19.90;58.04;100138.83;2237982;79;50320;-73
2023/04/23 12:24:14;;;;;;;;;;;;;;;19.89;58.27;100147.41;2243447;79;50286;-73
2023/04/23 12:27:18;;;;;;;;;;;;;;;19.90;58.25;100145.55;2206575;79;52381;-72
2023/04/23 12:30:18;;;;;;;;;;;;;;;19.89;58.33;100147.93;2230352;79;22480;-72
2023/04/23 12:33:20;;;;;;;;;;;;;;;19.91;58.39;100144.50;2243560;79;50798;-73
2023/04/23 12:36:22;;;;;;;;;;;;;;;19.93;58.32;100153.19;2229807;79;51467;-73
2023/04/23 12:39:31;;;;;;;;;;;;;;;19.94;58.22;100144.12;2206453;79;51243;-74
2023/04/23 12:42:33;;;;;;;;;;;;;;;19.94;58.35;100150.83;2243652;79;50744;-72
2023/04/23 12:45:38;;;;;;;;;;;;;;;19.99;58.27;100149.19;2243609;79;51517;-73
2023/04/23 12:48:39;;;;;;;;;;;;;;;20.01;58.25;100148.95;2225673;79;50295;-72
2023/04/23 12:51:41;;;;;;;;;;;;;;;19.99;58.36;100137.62;2200787;79;51678;-73
2023/04/23 12:54:43;;;;;;;;;;;;;;;20.01;58.34;100139.56;2243450;79;51320;-74
2023/04/23 12:57:45;;;;;;;;;;;;;;;20.00;58.33;100140.08;2230421;79;50268;-74
2023/04/23 13:00:46;;;;;;;;;;;;;;;20.00;58.31;100133.89;2230899;79;50182;-72
2023/04/23 13:03:48;;;;;;;;;;;;;;;19.99;58.42;100133.07;2243548;79;50385;-73
2023/04/23 13:06:50;;;;;;;;;;;;;;;20.00;58.49;100128.52;2230630;79;50287;-74
2023/04/23 13:09:52;;;;;;;;;;;;;;;20.01;58.44;100120.77;2243580;79;51581;-73
2023/04/23 13:12:53;;;;;;;;;;;;;;;20.00;58.45;100128.00;2230828;79;51472;-73
2023/04/23 13:15:55;;;;;;;;;;;;;;;20.01;58.44;100114.05;2229936;79;51132;-73
2023/04/23 13:18:56;;;;;;;;;;;;;;;20.01;58.44;100120.77;2245096;78;51550;-73
2023/04/23 13:21:58;;;;;;;;;;;;;;;20.03;58.36;100119.22;2240143;78;51451;-73
2023/04/23 13:24:59;;;;;;;;;;;;;;;20.02;58.49;100121.09;2266650;78;50223;-73
2023/04/23 13:28:01;;;;;;;;;;;;;;;20.06;58.45;100115.60;2266826;78;51427;-74
2023/04/23 13:31:03;;;;;;;;;;;;;;;20.05;58.64;100112.62;2208340;78;51270;-72
2023/04/23 13:34:04;;;;;;;;;;;;;;;20.03;58.65;100103.94;2266661;78;51498;-73
2023/04/23 13:37:08;;;;;;;;;;;;;;;20.04;58.79;100117.69;2245579;78;51418;-75
2023/04/23 13:40:10;;;;;;;;;;;;;;;20.06;58.74;100094.12;2266730;78;50690;-73
2023/04/23 13:43:11;;;;;;;;;;;;;;;20.08;58.70;100096.61;2266764;78;50405;-72
2023/04/23 13:46:13;;;;;;;;;;;;;;;20.04;58.85;100098.89;2266539;78;50245;-74
2023/04/23 13:49:15;;;;;;;;;;;;;;;20.04;58.98;100092.67;2231081;78;51540;-73
2023/04/23 13:52:16;;;;;;;;;;;;;;;20.03;58.99;100087.82;2264780;78;50304;-73
2023/04/23 13:55:18;;;;;;;;;;;;;;;20.08;58.92;100088.55;2221221;78;51227;-73
2023/04/23 13:58:19;;;;;;;;;;;;;;;20.08;58.91;100086.69;2266860;78;51416;-72
2023/04/23 14:01:21;;;;;;;;;;;;;;;20.10;58.93;100079.78;2266891;78;51504;-72
2023/04/23 14:04:23;;;;;;;;;;;;;;;20.12;58.84;100081.22;2245423;78;51414;-72
2023/04/23 14:07:24;;;;;;;;;;;;;;;20.12;58.94;100077.72;2245494;78;52342;-72
2023/04/23 14:10:26;;;;;;;;;;;;;;;20.08;59.11;100073.78;2266675;78;51511;-72
2023/04/23 14:13:27;;;;;;;;;;;;;;;20.07;59.16;100073.48;2266849;78;50585;-72
2023/04/23 14:16:29;;;;;;;;;;;;;;;20.07;59.17;100071.62;2266578;78;51416;-73
2023/04/23 14:19:33;;;;;;;;;;;;;;;20.09;59.18;100070.05;2241676;78;51560;-72
2023/04/23 14:22:34;;;;;;;;;;;;;;;20.10;59.13;100073.88;2209622;79;22293;-73
2023/04/23 14:25:37;;;;;;;;;;;;;;;20.11;59.15;100063.44;2229844;80;51517;-72
2023/04/23 14:28:39;;;;;;;;;;;;;;;20.14;59.09;100061.70;2229715;79;51409;-73
2023/04/23 14:31:41;;;;;;;;;;;;;;;20.14;59.12;100057.67;2208892;80;52556;-72
2023/04/23 14:34:43;;;;;;;;;;;;;;;20.15;59.16;100063.34;2208555;80;51486;-72
2023/04/23 14:37:45;;;;;;;;;;;;;;;20.18;59.15;100055.38;2230059;80;50678;-72
2023/04/23 14:40:46;;;;;;;;;;;;;;;20.20;59.14;100053.33;2209380;80;50679;-73
2023/04/23 14:43:48;;;;;;;;;;;;;;;20.21;59.13;100050.41;2185886;80;52493;-72
2023/04/23 14:46:50;;;;;;;;;;;;;;;20.22;59.14;100052.08;2209513;80;51521;-74
2023/04/23 14:49:51;;;;;;;;;;;;;;;20.25;59.15;100048.67;2221444;79;51476;-73
2023/04/23 14:52:53;;;;;;;;;;;;;;;20.21;59.25;100034.30;2230030;80;51620;-73
2023/04/23 14:55:54;;;;;;;;;;;;;;;20.22;59.33;100042.68;2186060;80;51097;-74
2023/04/23 14:58:56;;;;;;;;;;;;;;;20.22;59.32;100044.02;2226192;78;50384;-74
2023/04/23 15:01:58;;;;;;;;;;;;;;;20.25;59.37;100033.91;2267036;78;50683;-74
2023/04/23 15:05:00;;;;;;;;;;;;;;;20.24;59.43;100026.33;2245625;78;50305;-73
2023/04/23 15:08:02;;;;;;;;;;;;;;;20.22;59.39;100025.22;2221424;78;52326;-72
2023/04/23 15:11:05;;;;;;;;;;;;;;;20.23;59.56;100025.52;2246078;78;50744;-72
2023/04/23 15:14:20;;;;;;;;;;;;;;;20.23;59.63;100018.80;2229652;78;51554;-72
2023/04/23 15:17:21;;;;;;;;;;;;;;;20.21;59.65;100014.67;2246568;78;50286;-72
2023/04/23 15:20:23;;;;;;;;;;;;;;;20.22;59.72;100017.16;2207207;78;52562;-72
2023/04/23 15:23:25;;;;;;;;;;;;;;;20.21;59.74;100016.02;2235684;78;50642;-71
2023/04/23 15:26:26;;;;;;;;;;;;;;;20.19;59.77;100011.36;2244636;78;50279;-71
2023/04/23 15:29:28;;;;;;;;;;;;;;;;;;2238021;78;51437;-72
2023/04/23 15:32:30;;;;;;;;;;;;;;;20.15;59.78;100002.91;2250792;78;51593;-72
2023/04/23 15:35:31;;;;;;;;;;;;;;;;;;2288896;77;51518;-73
2023/04/23 15:38:32;;;;;;;;;;;;;;;20.18;59.68;100003.83;2260731;78;50662;-73
2023/04/23 15:41:35;;;;;;;;;;;;;;;20.20;59.82;100002.28;2289048;77;51415;-74